createdAt,value
2023-01-29T00:01:37.230Z,6.82
2023-01-29T00:04:03.948Z,6.92
2023-01-29T00:06:30.768Z,6.68
2023-01-29T00:08:57.362Z,6.99
2023-01-29T00:11:25.500Z,6.76
2023-01-29T00:13:53.499Z,7.16
2023-01-29T00:16:20.008Z,6.86
2023-01-29T00:18:46.499Z,6.43
2023-01-29T00:21:15.357Z,6.71
2023-01-29T00:23:42.175Z,7.11
2023-01-29T00:26:09.726Z,7.07
2023-01-29T00:28:36.622Z,7.13
2023-01-29T00:31:20.848Z,6.85
2023-01-29T00:33:48.269Z,6.58
2023-01-29T00:36:16.759Z,6.96
2023-01-29T00:38:43.331Z,7.04
2023-01-29T00:41:31.457Z,6.64
2023-01-29T00:44:17.309Z,6.93
2023-01-29T00:46:44.020Z,6.87
2023-01-29T00:49:10.721Z,7.21
2023-01-29T00:51:38.063Z,7.36
2023-01-29T00:54:06.764Z,6.94
2023-01-29T00:56:36.062Z,7.23
2023-01-29T00:59:03.760Z,6.87
2023-01-29T01:01:48.918Z,6.90
2023-01-29T01:04:15.455Z,7.05
2023-01-29T01:06:42.731Z,7.25
2023-01-29T01:09:28.919Z,7.21
2023-01-29T01:11:55.587Z,6.62
2023-01-29T01:14:22.129Z,6.62
2023-01-29T01:16:49.234Z,6.92
2023-01-29T01:19:16.228Z,7.13
2023-01-29T01:21:48.308Z,7.10
2023-01-29T01:24:15.755Z,7.03
2023-01-29T01:26:42.439Z,6.96
2023-01-29T01:29:09.377Z,6.97
2023-01-29T01:31:36.428Z,7.48
2023-01-29T01:34:03.661Z,7.51
2023-01-29T01:36:32.310Z,6.91
2023-01-29T01:38:59.778Z,7.13
2023-01-29T01:41:26.587Z,7.13
2023-01-29T01:44:02.190Z,7.01
2023-01-29T01:46:31.522Z,7.29
2023-01-29T01:49:08.933Z,7.05
2023-01-29T01:51:39.020Z,7.30
2023-01-29T01:54:10.259Z,6.95
2023-01-29T01:56:41.554Z,6.85
2023-01-29T01:59:10.575Z,6.67
2023-01-29T02:01:41.152Z,6.99
2023-01-29T02:04:29.757Z,7.11
2023-01-29T02:07:16.463Z,7.11
2023-01-29T02:09:47.822Z,7.11
2023-01-29T02:12:16.184Z,7.05
2023-01-29T02:14:43.647Z,7.39
2023-01-29T02:17:18.223Z,7.12
2023-01-29T02:19:57.470Z,6.85
2023-01-29T02:22:48.394Z,7.04
2023-01-29T02:25:46.353Z,7.37
2023-01-29T02:28:24.692Z,7.12
2023-01-29T02:31:19.867Z,7.27
2023-01-29T02:34:22.894Z,7.40
2023-01-29T02:37:07.313Z,7.03
2023-01-29T02:39:42.576Z,7.12
2023-01-29T02:42:24.768Z,7.04
2023-01-29T02:44:56.225Z,7.19
2023-01-29T02:47:35.080Z,7.30
2023-01-29T02:50:29.585Z,7.28
2023-01-29T02:53:34.207Z,7.26
2023-01-29T02:56:22.556Z,7.27
2023-01-29T02:59:01.407Z,7.31
2023-01-29T03:01:32.140Z,7.14
2023-01-29T03:04:07.357Z,7.23
2023-01-29T03:06:38.699Z,7.16
2023-01-29T03:09:09.619Z,7.15
2023-01-29T03:11:41.462Z,7.30
2023-01-29T03:14:13.710Z,7.11
2023-01-29T03:16:45.056Z,7.40
2023-01-29T03:19:26.292Z,7.20
2023-01-29T03:22:01.582Z,7.31
2023-01-29T03:24:56.865Z,7.20
2023-01-29T03:27:45.649Z,7.16
2023-01-29T03:30:33.255Z,7.41
2023-01-29T03:33:03.985Z,7.04
2023-01-29T03:35:37.712Z,7.04
2023-01-29T03:38:06.289Z,7.07
2023-01-29T03:40:51.840Z,7.22
2023-01-29T03:43:49.309Z,6.77
2023-01-29T03:46:33.288Z,6.56
2023-01-29T03:49:22.955Z,7.11
2023-01-29T03:51:58.625Z,7.01
2023-01-29T03:54:34.244Z,6.95
2023-01-29T03:57:30.049Z,7.02
2023-01-29T04:00:08.199Z,7.01
2023-01-29T04:02:39.566Z,6.98
2023-01-29T04:05:12.747Z,6.80
2023-01-29T04:07:40.176Z,7.17
2023-01-29T04:10:13.243Z,7.09
2023-01-29T04:12:47.393Z,6.68
2023-01-29T04:15:15.542Z,6.81
2023-01-29T04:17:44.234Z,6.29
2023-01-29T04:20:11.377Z,6.47
2023-01-29T04:22:39.262Z,6.63
2023-01-29T04:25:15.995Z,6.93
2023-01-29T04:28:01.778Z,7.33
2023-01-29T04:30:56.294Z,6.84
2023-01-29T04:33:55.205Z,7.09
2023-01-29T04:36:38.703Z,6.97
2023-01-29T04:39:21.210Z,6.83
2023-01-29T04:41:55.949Z,6.29
2023-01-29T04:44:42.499Z,6.85
2023-01-29T04:47:30.411Z,6.89
2023-01-29T04:50:13.844Z,6.25
2023-01-29T04:52:56.654Z,6.59
2023-01-29T04:55:43.814Z,6.89
2023-01-29T04:58:21.659Z,6.45
2023-01-29T05:00:50.179Z,6.94
2023-01-29T05:03:16.952Z,6.96
2023-01-29T05:05:46.129Z,7.01
2023-01-29T05:08:14.683Z,6.94
2023-01-29T05:10:42.417Z,7.01
2023-01-29T05:13:12.424Z,7.21
2023-01-29T05:15:48.276Z,7.28
2023-01-29T05:18:14.923Z,7.04
2023-01-29T05:20:42.603Z,7.23
2023-01-29T05:23:19.309Z,7.11
2023-01-29T05:25:46.852Z,7.16
2023-01-29T05:28:17.394Z,6.48
2023-01-29T05:30:48.823Z,6.97
2023-01-29T05:33:30.470Z,6.53
2023-01-29T05:35:58.941Z,7.23
2023-01-29T05:38:25.998Z,7.08
2023-01-29T05:40:52.469Z,7.28
2023-01-29T05:43:23.109Z,7.14
2023-01-29T05:45:57.456Z,6.90
2023-01-29T05:48:24.139Z,6.85
2023-01-29T05:50:51.047Z,6.75
2023-01-29T05:53:17.643Z,7.19
2023-01-29T05:55:45.629Z,7.15
2023-01-29T05:58:12.391Z,6.67
2023-01-29T06:00:39.134Z,6.99
2023-01-29T06:03:05.735Z,7.03
2023-01-29T06:05:32.301Z,6.35
2023-01-29T06:07:58.773Z,6.36
2023-01-29T06:10:25.413Z,6.40
2023-01-29T06:12:51.876Z,6.67
2023-01-29T06:15:19.801Z,6.63
2023-01-29T06:17:46.274Z,6.53
2023-01-29T06:20:13.681Z,6.86
2023-01-29T06:22:40.176Z,6.58
2023-01-29T06:25:07.338Z,6.83
2023-01-29T06:27:33.781Z,6.58
2023-01-29T06:30:00.252Z,6.84
2023-01-29T06:32:27.734Z,6.77
2023-01-29T06:34:54.310Z,6.62
2023-01-29T06:37:20.764Z,6.28
2023-01-29T06:39:47.248Z,6.67
2023-01-29T06:42:13.706Z,6.48
2023-01-29T06:44:40.182Z,6.57
2023-01-29T06:47:06.628Z,6.24
2023-01-29T06:49:33.242Z,6.49
2023-01-29T06:51:59.688Z,6.32
2023-01-29T06:54:26.223Z,6.23
2023-01-29T06:56:52.714Z,6.50
2023-01-29T06:59:19.233Z,6.17
2023-01-29T07:01:45.913Z,6.55
2023-01-29T07:04:12.483Z,6.21
2023-01-29T07:06:38.989Z,6.31
2023-01-29T07:09:05.478Z,6.01
2023-01-29T07:11:34.719Z,5.96
2023-01-29T07:14:01.196Z,6.54
2023-01-29T07:16:27.815Z,6.43
2023-01-29T07:18:54.357Z,6.20
2023-01-29T07:21:20.808Z,6.41
2023-01-29T07:23:47.293Z,5.92
2023-01-29T07:26:13.761Z,6.29
2023-01-29T07:28:40.681Z,6.23
2023-01-29T07:31:08.157Z,6.11
2023-01-29T07:33:34.815Z,6.26
2023-01-29T07:36:01.315Z,6.26
2023-01-29T07:38:27.827Z,6.06
2023-01-29T07:40:54.462Z,6.05
2023-01-29T07:43:20.969Z,6.35
2023-01-29T07:45:47.466Z,6.45
2023-01-29T07:48:14.036Z,5.83
2023-01-29T07:50:40.680Z,6.07
2023-01-29T07:53:07.203Z,5.94
2023-01-29T07:55:34.080Z,6.30
2023-01-29T07:58:02.559Z,6.39
2023-01-29T08:00:30.409Z,6.39
2023-01-29T08:03:05.390Z,6.08
2023-01-29T08:05:32.562Z,6.10
2023-01-29T08:08:06.457Z,6.27
2023-01-29T08:10:36.862Z,5.92
2023-01-29T08:13:04.933Z,6.35
2023-01-29T08:15:32.252Z,5.94
2023-01-29T08:17:58.847Z,6.34
2023-01-29T08:20:25.938Z,6.11
2023-01-29T08:23:02.448Z,6.37
2023-01-29T08:25:29.673Z,6.30
2023-01-29T08:28:00.172Z,6.02
2023-01-29T08:30:28.437Z,6.50
2023-01-29T08:32:54.931Z,6.19
2023-01-29T08:35:21.962Z,6.26
2023-01-29T08:37:59.797Z,5.92
2023-01-29T08:40:27.779Z,6.17
2023-01-29T08:43:02.669Z,6.02
2023-01-29T08:45:30.681Z,6.17
2023-01-29T08:47:57.123Z,6.32
2023-01-29T08:50:23.650Z,6.59
2023-01-29T08:52:50.136Z,6.18
2023-01-29T08:55:16.930Z,6.26
2023-01-29T08:57:43.689Z,6.52
2023-01-29T09:00:10.881Z,6.58
2023-01-29T09:02:38.086Z,6.11
2023-01-29T09:05:05.997Z,6.51
2023-01-29T09:07:32.598Z,6.38
2023-01-29T09:09:59.119Z,5.93
2023-01-29T09:12:25.665Z,6.17
2023-01-29T09:14:52.187Z,6.29
2023-01-29T09:17:18.735Z,6.41
2023-01-29T09:19:45.294Z,6.23
2023-01-29T09:22:12.004Z,6.01
2023-01-29T09:24:38.787Z,6.38
2023-01-29T09:27:06.223Z,6.22
2023-01-29T09:29:35.670Z,6.08
2023-01-29T09:32:03.411Z,6.74
2023-01-29T09:34:29.894Z,6.35
2023-01-29T09:36:56.412Z,6.01
2023-01-29T09:39:22.849Z,6.29
2023-01-29T09:41:56.995Z,6.12
2023-01-29T09:44:38.712Z,6.38
2023-01-29T09:47:11.622Z,6.61
2023-01-29T09:49:42.419Z,6.25
2023-01-29T09:52:19.310Z,6.20
2023-01-29T09:54:57.939Z,6.70
2023-01-29T09:57:44.214Z,6.19
2023-01-29T10:00:16.022Z,6.09
2023-01-29T10:03:15.739Z,6.15
2023-01-29T10:06:04.057Z,6.50
2023-01-29T10:09:08.477Z,6.46
2023-01-29T10:11:39.581Z,6.35
2023-01-29T10:15:01.961Z,6.51
2023-01-29T10:17:44.700Z,6.49
2023-01-29T10:20:15.415Z,6.47
2023-01-29T10:23:20.335Z,6.68
2023-01-29T10:25:48.184Z,6.47
2023-01-29T10:28:26.364Z,6.19
2023-01-29T10:31:09.642Z,6.45
2023-01-29T10:34:03.125Z,6.62
2023-01-29T10:36:39.096Z,6.31
2023-01-29T10:39:05.732Z,6.30
2023-01-29T10:42:14.199Z,6.82
2023-01-29T10:44:48.491Z,6.30
2023-01-29T10:47:34.523Z,6.55
2023-01-29T10:50:20.241Z,6.51
2023-01-29T10:53:12.425Z,6.51
2023-01-29T10:55:51.658Z,6.64
2023-01-29T10:58:31.759Z,6.71
2023-01-29T11:01:20.923Z,6.67
2023-01-29T11:04:09.723Z,6.97
2023-01-29T11:06:38.456Z,6.57
2023-01-29T11:09:26.366Z,6.95
2023-01-29T11:12:03.720Z,7.23
2023-01-29T11:21:05.850Z,6.96
2023-01-29T11:23:35.372Z,7.39
2023-01-29T11:26:06.734Z,7.00
2023-01-29T11:28:56.991Z,7.12
2023-01-29T11:31:40.123Z,6.80
2023-01-29T11:34:23.850Z,6.78
2023-01-29T11:37:21.164Z,6.89
2023-01-29T11:39:49.665Z,7.15
2023-01-29T11:42:33.746Z,6.76
2023-01-29T11:45:03.423Z,7.28
2023-01-29T11:50:29.673Z,7.21
2023-01-29T11:53:01.580Z,6.98
2023-01-29T11:55:54.583Z,6.98
2023-01-29T11:58:38.063Z,6.97
2023-01-29T12:01:06.653Z,6.87
2023-01-29T12:03:35.340Z,6.87
2023-01-29T12:06:11.064Z,6.99
2023-01-29T12:08:44.021Z,6.91
2023-01-29T12:11:31.943Z,7.03
2023-01-29T12:14:44.058Z,7.27
2023-01-29T12:17:25.404Z,6.84
2023-01-29T12:20:01.664Z,7.00
2023-01-29T12:23:25.572Z,6.19
2023-01-29T12:26:09.063Z,6.62
2023-01-29T12:29:08.775Z,6.66
2023-01-29T12:32:05.393Z,6.54
2023-01-29T12:34:55.119Z,6.48
2023-01-29T12:37:50.741Z,7.01
2023-01-29T12:40:21.044Z,6.36
2023-01-29T12:42:58.716Z,6.73
2023-01-29T12:46:00.402Z,6.48
2023-01-29T12:48:41.960Z,6.36
2023-01-29T12:51:12.571Z,6.66
2023-01-29T12:54:17.074Z,7.09
2023-01-29T12:56:59.436Z,6.82
2023-01-29T12:59:31.746Z,6.97
2023-01-29T13:02:18.520Z,6.80
2023-01-29T13:04:53.630Z,6.77
2023-01-29T13:07:57.583Z,6.60
2023-01-29T13:10:59.129Z,6.63
2023-01-29T13:13:59.299Z,6.71
2023-01-29T13:16:32.262Z,6.84
2023-01-29T13:19:27.809Z,6.94
2023-01-29T13:21:59.038Z,6.65
2023-01-29T13:24:31.398Z,6.85
2023-01-29T13:27:04.550Z,6.88
2023-01-29T13:29:33.315Z,6.32
2023-01-29T13:32:03.854Z,6.17
2023-01-29T13:34:39.221Z,6.77
2023-01-29T13:37:31.798Z,6.60
2023-01-29T13:40:26.279Z,6.80
2023-01-29T13:43:00.225Z,6.64
2023-01-29T13:45:46.227Z,6.69
2023-01-29T13:48:37.198Z,6.87
2023-01-29T13:51:05.185Z,6.35
2023-01-29T13:53:43.675Z,6.90
2023-01-29T13:59:56.143Z,6.18
2023-01-29T14:02:28.524Z,6.68
2023-01-29T14:05:41.397Z,6.70
2023-01-29T14:08:38.449Z,6.57
2023-01-29T14:11:19.237Z,6.65
2023-01-29T14:13:52.683Z,6.50
2023-01-29T14:16:24.093Z,7.26
2023-01-29T14:18:58.409Z,6.79
2023-01-29T14:21:34.385Z,6.83
2023-01-29T14:24:23.469Z,6.25
2023-01-29T14:27:03.313Z,6.55
2023-01-29T14:29:48.195Z,6.89
2023-01-29T14:32:33.445Z,6.39
2023-01-29T14:35:15.953Z,6.57
2023-01-29T14:37:54.527Z,6.36
2023-01-29T14:40:32.626Z,6.63
2023-01-29T14:43:11.920Z,6.58
2023-01-29T14:45:45.033Z,6.79
2023-01-29T14:48:33.983Z,6.30
2023-01-29T14:51:09.519Z,6.45
2023-01-29T14:53:48.888Z,6.43
2023-01-29T14:57:01.083Z,6.65
2023-01-29T14:59:48.361Z,6.37
2023-01-29T15:02:42.646Z,6.23
2023-01-29T15:05:20.042Z,6.76
2023-01-29T15:08:43.244Z,6.12
2023-01-29T15:11:43.969Z,6.60
2023-01-29T15:14:36.240Z,6.61
2023-01-29T15:17:31.909Z,6.31
2023-01-29T15:20:04.685Z,6.05
2023-01-29T15:22:36.531Z,6.56
2023-01-29T15:25:08.968Z,6.71
2023-01-29T15:27:37.255Z,6.72
2023-01-29T15:30:09.287Z,6.59
2023-01-29T15:33:28.961Z,6.45
2023-01-29T15:36:08.071Z,6.32
2023-01-29T15:38:45.028Z,6.55
2023-01-29T15:41:22.282Z,6.46
2023-01-29T15:43:57.944Z,6.82
2023-01-29T15:46:37.033Z,6.45
2023-01-29T15:49:16.845Z,6.18
2023-01-29T15:51:45.941Z,6.72
2023-01-29T15:54:17.636Z,7.00
2023-01-29T15:56:53.593Z,6.49
2023-01-29T15:59:52.586Z,6.82
2023-01-29T16:03:08.503Z,6.65
2023-01-29T16:05:38.302Z,6.23
2023-01-29T16:08:10.703Z,6.28
2023-01-29T16:10:41.197Z,6.45
2023-01-29T16:13:38.067Z,6.73
2023-01-29T16:16:28.398Z,6.34
2023-01-29T16:19:01.852Z,6.87
2023-01-29T16:21:35.583Z,6.60
2023-01-29T16:24:13.058Z,6.45
2023-01-29T16:26:53.401Z,6.63
2023-01-29T16:29:30.241Z,6.41
2023-01-29T16:32:05.259Z,6.57
2023-01-29T16:35:02.422Z,6.77
2023-01-29T16:37:34.896Z,6.80
2023-01-29T16:40:35.686Z,6.86
2023-01-29T16:43:26.227Z,6.84
2023-01-29T16:46:29.743Z,6.74
2023-01-29T16:49:00.712Z,6.74
2023-01-29T16:51:41.054Z,6.77
2023-01-29T16:54:16.151Z,7.13
2023-01-29T16:56:45.185Z,6.58
2023-01-29T16:59:19.163Z,6.93
2023-01-29T17:01:45.693Z,6.50
2023-01-29T17:04:17.843Z,6.54
2023-01-29T17:06:58.519Z,6.37
2023-01-29T17:09:34.210Z,6.49
2023-01-29T17:12:03.558Z,6.91
2023-01-29T17:14:31.953Z,6.98
2023-01-29T17:17:14.998Z,6.52
2023-01-29T17:19:41.689Z,6.62
2023-01-29T17:22:14.589Z,6.84
2023-01-29T17:24:41.977Z,6.35
2023-01-29T17:27:16.532Z,6.32
2023-01-29T17:29:43.041Z,6.46
2023-01-29T17:32:09.915Z,6.28
2023-01-29T17:34:41.639Z,6.27
2023-01-29T17:37:13.172Z,6.43
2023-01-29T17:39:39.812Z,6.14
2023-01-29T17:42:06.366Z,6.02
2023-01-29T17:44:32.864Z,6.02
2023-01-29T17:46:59.801Z,6.28
2023-01-29T17:49:28.654Z,5.85
2023-01-29T17:51:56.507Z,6.06
2023-01-29T17:54:23.408Z,5.88
2023-01-29T17:56:51.961Z,5.83
2023-01-29T17:59:22.464Z,5.85
2023-01-29T18:01:50.079Z,6.23
2023-01-29T18:04:23.277Z,6.10
2023-01-29T18:06:51.131Z,5.57
2023-01-29T18:09:21.766Z,5.56
2023-01-29T18:11:49.403Z,5.80
2023-01-29T18:14:15.995Z,6.38
2023-01-29T18:19:37.521Z,5.66
2023-01-29T18:22:04.069Z,5.58
2023-01-29T18:24:31.381Z,5.70
2023-01-29T18:26:57.881Z,5.85
2023-01-29T18:29:29.497Z,6.18
2023-01-29T18:31:56.424Z,5.94
2023-01-29T18:34:23.037Z,6.00
2023-01-29T18:36:50.239Z,5.77
2023-01-29T18:39:16.854Z,5.41
2023-01-29T18:41:43.368Z,5.68
2023-01-29T18:44:10.608Z,5.53
2023-01-29T18:46:37.119Z,5.59
2023-01-29T18:49:05.171Z,5.96
2023-01-29T18:51:31.888Z,5.72
2023-01-29T18:53:58.357Z,5.69
2023-01-29T18:56:24.851Z,5.85
2023-01-29T18:58:55.326Z,5.74
2023-01-29T19:01:22.725Z,5.85
2023-01-29T19:03:49.256Z,6.08
2023-01-29T19:06:15.726Z,5.83
2023-01-29T19:08:43.033Z,5.97
2023-01-29T19:11:12.381Z,5.76
2023-01-29T19:13:39.020Z,5.87
2023-01-29T19:16:09.817Z,5.67
2023-01-29T19:18:36.908Z,5.86
2023-01-29T19:21:08.532Z,5.83
2023-01-29T19:23:35.105Z,5.68
2023-01-29T19:26:01.584Z,5.30
2023-01-29T19:28:32.072Z,5.51
2023-01-29T19:30:59.470Z,5.73
2023-01-29T19:33:27.768Z,5.69
2023-01-29T19:35:58.922Z,5.42
2023-01-29T19:38:25.734Z,5.51
2023-01-29T19:40:52.307Z,5.56
2023-01-29T19:43:19.045Z,5.64
2023-01-29T19:45:50.961Z,6.20
2023-01-29T19:48:21.648Z,5.50
2023-01-29T19:50:54.343Z,6.14
2023-01-29T19:53:21.034Z,5.77
2023-01-29T19:55:48.349Z,5.70
2023-01-29T19:58:14.815Z,5.55
2023-01-29T20:00:44.401Z,6.05
2023-01-29T20:03:11.106Z,5.89
2023-01-29T20:05:37.613Z,5.73
2023-01-29T20:08:05.583Z,5.66
2023-01-29T20:10:32.558Z,6.06
2023-01-29T20:12:59.036Z,5.78
2023-01-29T20:15:25.494Z,6.05
2023-01-29T20:17:51.925Z,5.87
2023-01-29T20:20:18.858Z,5.60
2023-01-29T20:22:56.735Z,5.80
2023-01-29T20:27:50.548Z,5.85
2023-01-29T20:30:17.898Z,6.18
2023-01-29T20:32:44.521Z,6.15
2023-01-29T20:35:11.080Z,5.60
2023-01-29T20:37:37.547Z,5.91
2023-01-29T20:40:04.403Z,5.57
2023-01-29T20:42:32.919Z,5.84
2023-01-29T20:44:59.437Z,5.64
2023-01-29T20:47:25.991Z,5.87
2023-01-29T20:49:52.483Z,5.73
2023-01-29T20:52:19.096Z,6.09
2023-01-29T20:54:45.642Z,5.54
2023-01-29T20:57:12.263Z,5.83
2023-01-29T20:59:38.850Z,5.99
2023-01-29T21:02:05.355Z,5.91
2023-01-29T21:04:32.071Z,5.55
2023-01-29T21:06:58.560Z,5.70
2023-01-29T21:09:25.035Z,5.80
2023-01-29T21:11:51.559Z,5.95
2023-01-29T21:14:18.087Z,5.83
2023-01-29T21:16:44.776Z,6.11
2023-01-29T21:19:13.853Z,5.79
2023-01-29T21:21:40.367Z,5.80
2023-01-29T21:24:08.869Z,5.83
2023-01-29T21:26:38.358Z,5.75
2023-01-29T21:29:05.177Z,6.10
2023-01-29T21:31:31.692Z,6.61
2023-01-29T21:33:58.174Z,6.02
2023-01-29T21:36:24.627Z,6.09
2023-01-29T21:38:51.139Z,5.84
2023-01-29T21:41:17.635Z,6.51
2023-01-29T21:43:44.740Z,6.52
2023-01-29T21:46:14.263Z,6.16
2023-01-29T21:48:40.907Z,5.68
2023-01-29T21:51:07.973Z,5.82
2023-01-29T21:53:34.875Z,5.96
2023-01-29T21:56:05.862Z,5.48
2023-01-29T21:58:32.378Z,5.99
2023-01-29T22:01:18.259Z,6.08
2023-01-29T22:03:47.175Z,6.02
2023-01-29T22:06:14.093Z,5.94
2023-01-29T22:08:40.568Z,6.14
2023-01-29T22:11:07.526Z,6.00
2023-01-29T22:13:34.408Z,6.06
2023-01-29T22:16:00.929Z,6.29
2023-01-29T22:18:27.690Z,5.92
2023-01-29T22:20:55.374Z,6.16
2023-01-29T22:23:22.665Z,6.24
2023-01-29T22:25:49.225Z,6.49
2023-01-29T22:28:16.722Z,6.21
2023-01-29T22:30:43.878Z,6.44
2023-01-29T22:33:10.781Z,6.03
2023-01-29T22:35:45.279Z,6.11
2023-01-29T22:38:16.604Z,6.30
2023-01-29T22:40:56.885Z,6.66
2023-01-29T22:43:32.757Z,6.66
2023-01-29T22:46:01.234Z,6.25
2023-01-29T22:48:32.082Z,6.26
2023-01-29T22:51:13.314Z,6.38
2023-01-29T22:53:54.413Z,6.36
2023-01-29T22:56:30.880Z,6.50
2023-01-29T22:59:05.650Z,6.25
2023-01-29T23:01:40.304Z,6.37
2023-01-29T23:04:07.467Z,6.34
2023-01-29T23:06:39.246Z,6.37
2023-01-29T23:09:18.267Z,6.35
2023-01-29T23:11:54.212Z,6.66
2023-01-29T23:14:23.434Z,6.49
2023-01-29T23:16:53.244Z,6.52
2023-01-29T23:19:22.857Z,6.65
2023-01-29T23:21:51.251Z,6.10
2023-01-29T23:24:26.402Z,6.30
2023-01-29T23:27:14.981Z,6.15
2023-01-29T23:29:48.697Z,6.18
2023-01-29T23:32:21.258Z,6.56
2023-01-29T23:34:51.164Z,6.29
2023-01-29T23:37:18.369Z,6.54
2023-01-29T23:39:49.326Z,6.25
2023-01-29T23:42:16.648Z,6.49
2023-01-29T23:44:44.801Z,6.66
2023-01-29T23:47:11.757Z,6.43
2023-01-29T23:49:42.450Z,6.16
2023-01-29T23:52:09.532Z,6.61
2023-01-29T23:54:37.375Z,6.51
2023-01-29T23:57:04.697Z,6.88
2023-01-29T23:59:32.004Z,6.32
